createdAt,value
2023-03-26T00:01:40.377Z,2.33
2023-03-26T00:04:09.034Z,3.53
2023-03-26T00:06:41.675Z,4.57
2023-03-26T00:09:13.758Z,1.50
2023-03-26T00:11:42.440Z,4.33
2023-03-26T00:14:13.880Z,2.50
2023-03-26T00:16:43.056Z,2.40
2023-03-26T00:19:12.594Z,2.20
2023-03-26T00:21:42.267Z,2.23
2023-03-26T00:24:15.164Z,2.57
2023-03-26T00:26:44.537Z,3.90
2023-03-26T00:29:13.869Z,2.67
2023-03-26T00:31:46.418Z,3.60
2023-03-26T00:36:46.998Z,1.87
2023-03-26T00:39:17.667Z,1.87
2023-03-26T00:41:45.778Z,4.13
2023-03-26T00:44:14.169Z,2.40
2023-03-26T00:46:42.550Z,3.60
2023-03-26T00:49:14.727Z,2.70
2023-03-26T00:51:44.401Z,2.80
2023-03-26T00:54:12.699Z,2.63
2023-03-26T00:56:40.694Z,1.90
2023-03-26T00:59:09.285Z,2.53
2023-03-26T01:01:37.633Z,2.30
2023-03-26T01:04:31.484Z,2.40
2023-03-26T01:07:05.054Z,1.77
2023-03-26T01:09:36.870Z,2.60
2023-03-26T01:12:09.789Z,1.83
2023-03-26T01:14:38.578Z,1.43
2023-03-26T01:17:09.093Z,1.90
2023-03-26T01:19:46.569Z,2.20
2023-03-26T01:22:18.817Z,3.03
2023-03-26T01:24:53.065Z,1.47
2023-03-26T01:27:31.841Z,1.53
2023-03-26T01:30:08.265Z,2.67
2023-03-26T01:32:52.666Z,2.20
2023-03-26T01:35:35.760Z,1.70
2023-03-26T01:38:15.050Z,2.10
2023-03-26T01:40:49.542Z,3.37
2023-03-26T01:43:28.794Z,2.90
2023-03-26T01:45:59.746Z,3.90
2023-03-26T01:48:34.958Z,4.37
2023-03-26T01:51:03.218Z,2.30
2023-03-26T01:53:32.826Z,1.53
2023-03-26T01:56:13.554Z,3.00
2023-03-26T01:58:56.300Z,3.23
2023-03-26T02:01:31.251Z,2.53
2023-03-26T02:04:07.288Z,2.20
2023-03-26T02:06:43.147Z,1.80
2023-03-26T02:09:16.041Z,2.73
2023-03-26T02:11:47.637Z,1.80
2023-03-26T02:14:16.438Z,2.17
2023-03-26T02:16:47.006Z,2.23
2023-03-26T02:19:21.244Z,2.03
2023-03-26T02:21:51.214Z,1.97
2023-03-26T02:24:20.258Z,1.77
2023-03-26T02:26:49.616Z,3.13
2023-03-26T02:29:20.484Z,2.43
2023-03-26T02:31:49.559Z,2.40
2023-03-26T02:34:18.246Z,1.87
2023-03-26T02:36:46.827Z,2.87
2023-03-26T02:39:15.209Z,2.80
2023-03-26T02:41:43.304Z,3.80
2023-03-26T02:44:12.740Z,2.40
2023-03-26T02:46:40.922Z,1.30
2023-03-26T02:49:09.136Z,1.50
2023-03-26T02:51:37.464Z,1.97
2023-03-26T02:54:06.960Z,2.00
2023-03-26T02:56:35.293Z,3.50
2023-03-26T02:59:03.385Z,3.87
2023-03-26T03:01:34.876Z,2.23
2023-03-26T03:04:04.947Z,3.07
2023-03-26T03:06:32.954Z,1.73
2023-03-26T03:09:02.542Z,1.90
2023-03-26T03:11:30.605Z,1.80
2023-03-26T03:13:58.781Z,2.20
2023-03-26T03:16:27.103Z,1.53
2023-03-26T03:18:58.300Z,1.43
2023-03-26T03:21:29.457Z,1.93
2023-03-26T03:24:00.218Z,1.80
2023-03-26T03:26:29.776Z,2.23
2023-03-26T03:28:59.534Z,1.80
2023-03-26T03:31:28.436Z,5.17
2023-03-26T03:33:57.953Z,2.03
2023-03-26T03:36:27.795Z,1.60
2023-03-26T03:38:55.832Z,2.37
2023-03-26T03:41:23.837Z,2.20
2023-03-26T03:43:51.900Z,1.63
2023-03-26T03:46:20.018Z,2.00
2023-03-26T03:48:49.818Z,2.20
2023-03-26T03:51:19.795Z,1.70
2023-03-26T03:53:48.021Z,2.93
2023-03-26T03:56:17.472Z,1.73
2023-03-26T03:58:47.296Z,1.80
2023-03-26T04:01:16.722Z,2.07
2023-03-26T04:03:46.140Z,2.30
2023-03-26T04:06:18.835Z,2.47
2023-03-26T04:08:48.564Z,1.93
2023-03-26T04:11:16.604Z,1.93
2023-03-26T04:13:45.335Z,2.27
2023-03-26T04:16:13.447Z,2.43
2023-03-26T04:18:41.992Z,1.87
2023-03-26T04:21:12.372Z,2.53
2023-03-26T04:23:42.300Z,2.37
2023-03-26T04:26:16.654Z,1.47
2023-03-26T04:28:50.304Z,2.13
2023-03-26T04:31:24.107Z,2.50
2023-03-26T04:33:55.360Z,1.63
2023-03-26T04:36:28.645Z,2.27
2023-03-26T04:39:02.378Z,1.57
2023-03-26T04:41:32.293Z,2.70
2023-03-26T04:44:01.984Z,1.57
2023-03-26T04:46:33.646Z,2.70
2023-03-26T04:49:02.239Z,2.33
2023-03-26T04:51:39.125Z,2.67
2023-03-26T04:54:08.008Z,1.50
2023-03-26T04:56:44.223Z,1.93
2023-03-26T04:59:26.111Z,2.27
2023-03-26T05:01:54.250Z,3.50
2023-03-26T05:04:22.345Z,2.10
2023-03-26T05:06:50.764Z,1.90
2023-03-26T05:09:18.724Z,1.70
2023-03-26T05:11:48.188Z,2.60
2023-03-26T05:14:16.285Z,1.63
2023-03-26T05:16:46.440Z,2.40
2023-03-26T05:19:15.091Z,1.73
2023-03-26T05:21:43.047Z,1.90
2023-03-26T05:24:11.221Z,1.53
2023-03-26T05:26:39.282Z,2.60
2023-03-26T05:29:08.642Z,1.90
2023-03-26T05:31:37.754Z,1.97
2023-03-26T05:34:06.684Z,3.00
2023-03-26T05:36:34.839Z,3.10
2023-03-26T05:39:03.480Z,1.73
2023-03-26T05:41:31.456Z,2.03
2023-03-26T05:43:59.511Z,2.07
2023-03-26T05:46:29.706Z,1.70
2023-03-26T05:48:57.742Z,1.70
2023-03-26T05:51:25.958Z,1.63
2023-03-26T05:53:54.012Z,2.70
2023-03-26T05:56:22.112Z,2.40
2023-03-26T05:58:51.962Z,5.70
2023-03-26T06:01:20.781Z,2.37
2023-03-26T06:03:51.410Z,1.43
2023-03-26T06:06:21.661Z,1.73
2023-03-26T06:09:01.475Z,2.93
2023-03-26T06:11:32.480Z,2.20
2023-03-26T06:14:00.974Z,2.17
2023-03-26T06:16:29.060Z,3.43
2023-03-26T06:18:58.840Z,1.40
2023-03-26T06:21:27.660Z,1.30
2023-03-26T06:23:56.245Z,1.53
2023-03-26T06:26:24.255Z,2.27
2023-03-26T06:28:52.405Z,1.73
2023-03-26T06:31:20.680Z,1.80
2023-03-26T06:33:48.877Z,3.30
2023-03-26T06:36:18.340Z,1.40
2023-03-26T06:38:46.393Z,1.87
2023-03-26T06:41:14.672Z,1.70
2023-03-26T06:43:42.783Z,1.90
2023-03-26T06:46:11.832Z,1.90
2023-03-26T06:48:40.266Z,2.50
2023-03-26T06:51:09.089Z,1.30
2023-03-26T06:53:38.547Z,3.00
2023-03-26T06:56:09.146Z,1.53
2023-03-26T06:58:37.502Z,1.60
2023-03-26T07:01:06.225Z,2.20
2023-03-26T07:03:34.383Z,2.47
2023-03-26T07:06:02.438Z,2.30
2023-03-26T07:08:31.598Z,1.87
2023-03-26T07:11:01.032Z,1.60
2023-03-26T07:13:29.050Z,2.13
2023-03-26T07:15:57.084Z,1.53
2023-03-26T07:18:25.088Z,2.03
2023-03-26T07:20:53.944Z,1.50
2023-03-26T07:23:23.237Z,2.00
2023-03-26T07:25:52.170Z,1.37
2023-03-26T07:28:31.035Z,2.20
2023-03-26T07:31:12.965Z,1.80
2023-03-26T07:33:50.727Z,1.77
2023-03-26T07:36:26.929Z,1.70
2023-03-26T07:39:12.828Z,2.00
2023-03-26T07:41:47.255Z,2.13
2023-03-26T07:44:50.585Z,1.73
2023-03-26T07:47:28.721Z,2.43
2023-03-26T07:49:58.414Z,1.27
2023-03-26T07:52:28.220Z,1.57
2023-03-26T07:54:56.962Z,1.97
2023-03-26T07:57:39.636Z,1.10
2023-03-26T08:00:16.234Z,2.20
2023-03-26T08:03:14.589Z,1.27
2023-03-26T08:05:49.155Z,1.20
2023-03-26T08:08:25.552Z,1.40
2023-03-26T08:11:09.471Z,2.10
2023-03-26T08:13:50.796Z,1.37
2023-03-26T08:16:27.609Z,1.33
2023-03-26T08:19:06.095Z,1.40
2023-03-26T08:21:40.128Z,3.40
2023-03-26T08:24:16.247Z,1.87
2023-03-26T08:26:53.421Z,1.70
2023-03-26T08:29:32.736Z,2.40
2023-03-26T08:32:04.689Z,1.90
2023-03-26T08:34:33.312Z,1.60
2023-03-26T08:37:01.520Z,1.37
2023-03-26T08:39:29.485Z,3.37
2023-03-26T08:42:36.526Z,1.53
2023-03-26T08:45:53.362Z,1.40
2023-03-26T08:48:56.851Z,1.97
2023-03-26T08:52:18.886Z,1.07
2023-03-26T08:55:23.023Z,1.30
2023-03-26T08:58:37.144Z,3.43
2023-03-26T09:01:36.825Z,1.17
2023-03-26T09:04:53.082Z,3.80
2023-03-26T09:08:07.171Z,1.43
2023-03-26T09:11:06.255Z,4.50
2023-03-26T09:14:17.668Z,4.80
2023-03-26T09:17:17.430Z,1.90
2023-03-26T09:20:38.856Z,2.23
2023-03-26T09:24:00.399Z,1.67
2023-03-26T09:26:41.612Z,4.33
2023-03-26T09:29:46.580Z,13.57
2023-03-26T09:33:06.337Z,6.93
2023-03-26T09:35:55.601Z,11.87
2023-03-26T09:38:47.001Z,3.30
2023-03-26T09:41:27.132Z,3.50
2023-03-26T09:44:46.605Z,9.03
2023-03-26T09:47:47.362Z,2.90
2023-03-26T09:50:38.360Z,2.37
2023-03-26T09:53:47.070Z,5.60
2023-03-26T09:56:27.103Z,9.23
2023-03-26T09:59:19.233Z,3.57
2023-03-26T10:01:58.580Z,7.17
2023-03-26T10:04:55.630Z,7.47
2023-03-26T10:07:58.588Z,4.50
2023-03-26T10:10:37.033Z,2.07
2023-03-26T10:13:22.660Z,4.80
2023-03-26T10:16:03.641Z,11.13
2023-03-26T10:18:46.212Z,4.10
2023-03-26T10:21:25.654Z,3.37
2023-03-26T10:24:14.530Z,4.93
2023-03-26T10:27:08.746Z,6.97
2023-03-26T10:30:09.551Z,7.20
2023-03-26T10:32:49.429Z,4.47
2023-03-26T10:35:29.411Z,5.20
2023-03-26T10:38:17.888Z,7.03
2023-03-26T10:40:58.489Z,7.07
2023-03-26T10:44:07.499Z,5.47
2023-03-26T10:47:02.760Z,9.53
2023-03-26T10:49:49.131Z,6.90
2023-03-26T10:52:20.853Z,5.73
2023-03-26T10:54:57.110Z,9.20
2023-03-26T10:57:36.688Z,4.07
2023-03-26T11:00:23.257Z,4.10
2023-03-26T11:03:15.867Z,3.27
2023-03-26T11:05:53.740Z,2.20
2023-03-26T11:08:32.472Z,2.03
2023-03-26T11:11:12.128Z,4.93
2023-03-26T11:13:48.702Z,3.40
2023-03-26T11:16:24.759Z,2.67
2023-03-26T11:19:00.719Z,6.80
2023-03-26T11:21:36.175Z,3.77
2023-03-26T11:24:25.408Z,6.57
2023-03-26T11:26:57.893Z,3.30
2023-03-26T11:29:51.462Z,6.23
2023-03-26T11:32:24.139Z,2.63
2023-03-26T11:35:01.653Z,4.90
2023-03-26T11:37:35.204Z,6.00
2023-03-26T11:40:11.604Z,4.60
2023-03-26T11:42:40.409Z,10.83
2023-03-26T11:45:17.697Z,1.90
2023-03-26T11:47:49.517Z,4.70
2023-03-26T11:50:23.096Z,4.50
2023-03-26T11:52:51.314Z,2.40
2023-03-26T11:55:19.819Z,4.70
2023-03-26T11:57:54.681Z,3.20
2023-03-26T12:00:27.412Z,4.63
2023-03-26T12:02:59.434Z,11.13
2023-03-26T12:05:33.353Z,3.50
2023-03-26T12:08:04.172Z,5.50
2023-03-26T12:10:37.628Z,8.20
2023-03-26T12:13:35.182Z,7.33
2023-03-26T12:16:11.761Z,6.27
2023-03-26T12:18:43.178Z,6.60
2023-03-26T12:21:17.553Z,5.17
2023-03-26T12:24:00.814Z,5.90
2023-03-26T12:26:41.220Z,5.87
2023-03-26T12:29:13.331Z,6.50
2023-03-26T12:31:54.087Z,3.90
2023-03-26T12:34:24.462Z,5.93
2023-03-26T12:36:56.737Z,4.13
2023-03-26T12:40:09.107Z,2.93
2023-03-26T12:44:42.967Z,5.80
2023-03-26T12:45:23.811Z,4.43
2023-03-26T12:47:59.128Z,3.73
2023-03-26T12:50:57.041Z,7.83
2023-03-26T12:53:49.285Z,4.60
2023-03-26T12:56:23.236Z,3.13
2023-03-26T12:59:08.308Z,2.67
2023-03-26T13:01:50.749Z,3.80
2023-03-26T13:04:54.971Z,3.87
2023-03-26T13:07:48.148Z,3.30
2023-03-26T13:10:50.013Z,3.23
2023-03-26T13:13:50.259Z,4.00
2023-03-26T13:16:28.192Z,2.67
2023-03-26T13:19:01.205Z,3.90
2023-03-26T13:21:39.427Z,7.13
2023-03-26T13:24:21.259Z,3.10
2023-03-26T13:27:06.765Z,7.33
2023-03-26T13:29:46.352Z,3.37
2023-03-26T13:32:24.365Z,3.30
2023-03-26T13:35:11.547Z,2.93
2023-03-26T13:37:49.829Z,2.70
2023-03-26T13:40:26.318Z,3.10
2023-03-26T13:43:19.936Z,3.30
2023-03-26T13:45:58.931Z,3.30
2023-03-26T13:48:30.810Z,3.60
2023-03-26T13:51:06.164Z,8.63
2023-03-26T13:53:42.949Z,2.33
2023-03-26T13:56:16.202Z,6.03
2023-03-26T13:58:51.666Z,2.43
2023-03-26T14:01:23.362Z,4.50
2023-03-26T14:04:00.121Z,3.10
2023-03-26T14:06:43.368Z,4.40
2023-03-26T14:09:18.872Z,2.30
2023-03-26T14:12:03.909Z,5.47
2023-03-26T14:14:41.404Z,3.83
2023-03-26T14:17:19.129Z,4.80
2023-03-26T14:20:23.945Z,2.10
2023-03-26T14:23:08.464Z,2.10
2023-03-26T14:25:56.877Z,6.60
2023-03-26T14:29:14.670Z,5.40
2023-03-26T14:31:59.504Z,2.30
2023-03-26T14:34:46.729Z,3.00
2023-03-26T14:38:00.675Z,5.40
2023-03-26T14:40:31.734Z,4.13
2023-03-26T14:43:22.617Z,3.07
2023-03-26T14:46:08.955Z,8.50
2023-03-26T14:49:21.882Z,3.70
2023-03-26T14:52:03.420Z,1.80
2023-03-26T14:54:36.096Z,3.10
2023-03-26T14:57:47.216Z,3.10
2023-03-26T15:00:49.962Z,2.63
2023-03-26T15:04:17.880Z,3.33
2023-03-26T15:07:42.618Z,3.90
2023-03-26T15:10:42.366Z,2.20
2023-03-26T15:13:44.606Z,5.57
2023-03-26T15:16:42.761Z,3.83
2023-03-26T15:20:05.189Z,5.27
2023-03-26T15:23:29.155Z,11.27
2023-03-26T15:26:47.646Z,5.67
2023-03-26T15:30:03.585Z,3.57
2023-03-26T15:33:10.363Z,6.73
2023-03-26T15:36:17.393Z,5.83
2023-03-26T15:39:58.987Z,6.37
2023-03-26T15:42:38.510Z,5.10
2023-03-26T15:45:31.297Z,6.00
2023-03-26T15:48:22.673Z,6.17
2023-03-26T15:51:00.588Z,6.07
2023-03-26T15:53:38.657Z,3.53
2023-03-26T15:56:28.197Z,13.63
2023-03-26T15:59:16.792Z,8.13
2023-03-26T16:02:02.391Z,8.40
2023-03-26T16:04:50.745Z,4.10
2023-03-26T16:07:39.332Z,3.77
2023-03-26T16:10:29.192Z,6.77
2023-03-26T16:13:29.604Z,8.70
2023-03-26T16:16:18.597Z,7.03
2023-03-26T16:18:48.274Z,5.37
2023-03-26T16:21:45.871Z,3.97
2023-03-26T16:24:31.829Z,3.33
2023-03-26T16:27:31.961Z,3.13
2023-03-26T16:30:33.379Z,10.60
2023-03-26T16:33:15.952Z,3.77
2023-03-26T16:36:18.297Z,6.20
2023-03-26T16:38:55.416Z,6.80
2023-03-26T16:41:27.542Z,2.27
2023-03-26T16:44:13.675Z,5.60
2023-03-26T16:47:02.196Z,2.60
2023-03-26T16:49:49.310Z,4.33
2023-03-26T16:52:46.175Z,3.53
2023-03-26T16:55:24.195Z,5.77
2023-03-26T16:57:58.138Z,10.63
2023-03-26T17:00:40.300Z,2.97
2023-03-26T17:03:33.859Z,11.57
2023-03-26T17:06:29.678Z,6.17
2023-03-26T17:09:04.245Z,4.40
2023-03-26T17:11:44.795Z,3.23
2023-03-26T17:14:31.078Z,4.27
2023-03-26T17:17:41.417Z,5.60
2023-03-26T17:20:32.892Z,4.33
2023-03-26T17:23:17.175Z,4.27
2023-03-26T17:25:58.579Z,1.83
2023-03-26T17:28:41.151Z,3.10
2023-03-26T17:31:23.674Z,2.90
2023-03-26T17:33:53.468Z,2.00
2023-03-26T17:36:45.963Z,8.23
2023-03-26T17:39:24.130Z,7.60
2023-03-26T17:42:18.867Z,5.60
2023-03-26T17:44:51.764Z,6.47
2023-03-26T17:47:38.103Z,10.43
2023-03-26T17:50:15.797Z,7.00
2023-03-26T17:52:56.570Z,4.60
2023-03-26T17:55:30.942Z,4.73
2023-03-26T17:58:01.042Z,5.40
2023-03-26T18:00:33.126Z,3.87
2023-03-26T18:03:06.910Z,4.67
2023-03-26T18:05:39.763Z,5.67
2023-03-26T18:08:50.708Z,4.90
2023-03-26T18:11:50.653Z,3.43
2023-03-26T18:14:55.506Z,4.00
2023-03-26T18:17:25.508Z,3.30
2023-03-26T18:19:56.302Z,4.70
2023-03-26T18:22:28.294Z,5.33
2023-03-26T18:25:01.283Z,14.70
2023-03-26T18:27:38.942Z,7.40
2023-03-26T18:30:18.513Z,15.23
2023-03-26T18:35:28.414Z,6.47
2023-03-26T18:37:59.975Z,7.70
2023-03-26T18:40:34.052Z,4.43
2023-03-26T18:43:02.137Z,11.00
2023-03-26T18:45:33.598Z,5.07
2023-03-26T18:48:04.833Z,6.53
2023-03-26T18:50:36.778Z,19.67
2023-03-26T18:53:07.676Z,37.40
2023-03-26T18:55:39.405Z,157.13
2023-03-26T18:58:23.112Z,146.63
2023-03-26T19:00:52.876Z,139.33
2023-03-26T19:03:24.192Z,156.27
2023-03-26T19:05:54.493Z,154.60
2023-03-26T19:08:25.208Z,172.67
2023-03-26T19:10:56.411Z,163.67
2023-03-26T19:13:24.893Z,150.20
2023-03-26T19:15:54.606Z,162.37
2023-03-26T19:18:27.472Z,150.27
2023-03-26T19:20:59.181Z,147.13
2023-03-26T19:23:32.200Z,160.27
2023-03-26T19:26:04.361Z,139.60
2023-03-26T19:28:36.535Z,128.43
2023-03-26T19:31:10.735Z,136.50
2023-03-26T19:33:43.139Z,110.90
2023-03-26T19:36:21.016Z,104.80
2023-03-26T19:38:52.441Z,99.90
2023-03-26T19:41:25.172Z,100.97
2023-03-26T19:43:57.743Z,86.63
2023-03-26T19:46:26.859Z,101.97
2023-03-26T19:48:57.559Z,91.53
2023-03-26T19:51:32.647Z,98.07
2023-03-26T19:54:03.007Z,82.17
2023-03-26T19:56:33.641Z,89.97
2023-03-26T19:59:02.214Z,79.00
2023-03-26T20:01:31.775Z,78.07
2023-03-26T20:04:03.975Z,73.80
2023-03-26T20:06:42.701Z,67.43
2023-03-26T20:09:13.448Z,68.67
2023-03-26T20:11:43.176Z,72.63
2023-03-26T20:14:16.660Z,75.50
2023-03-26T20:16:45.803Z,80.27
2023-03-26T20:19:14.988Z,70.90
2023-03-26T20:21:44.151Z,71.83
2023-03-26T20:24:15.634Z,63.93
2023-03-26T20:26:45.923Z,72.10
2023-03-26T20:29:14.658Z,68.20
2023-03-26T20:31:43.819Z,58.13
2023-03-26T20:34:18.329Z,60.00
2023-03-26T20:36:47.038Z,61.23
2023-03-26T20:39:15.389Z,60.13
2023-03-26T20:41:48.264Z,58.70
2023-03-26T20:44:19.292Z,62.73
2023-03-26T20:46:49.121Z,73.17
2023-03-26T20:49:17.860Z,59.70
2023-03-26T20:51:46.502Z,53.90
2023-03-26T20:54:18.551Z,52.40
2023-03-26T20:56:49.118Z,64.37
2023-03-26T20:59:21.979Z,52.70
2023-03-26T21:01:51.641Z,59.33
2023-03-26T21:04:20.458Z,56.97
2023-03-26T21:06:49.372Z,58.30
2023-03-26T21:09:23.461Z,56.07
2023-03-26T21:12:00.732Z,54.57
2023-03-26T21:14:39.027Z,53.50
2023-03-26T21:17:09.609Z,55.70
2023-03-26T21:19:38.196Z,59.47
2023-03-26T21:22:18.613Z,53.53
2023-03-26T21:25:02.319Z,58.10
2023-03-26T21:27:39.472Z,47.80
2023-03-26T21:30:14.254Z,56.70
2023-03-26T21:32:44.041Z,59.33
2023-03-26T21:35:14.589Z,57.20
2023-03-26T21:37:45.504Z,49.57
2023-03-26T21:40:18.071Z,64.73
2023-03-26T21:42:50.949Z,47.70
2023-03-26T21:45:21.600Z,49.63
2023-03-26T21:47:50.924Z,49.23
2023-03-26T21:50:23.367Z,45.70
2023-03-26T21:52:52.334Z,50.30
2023-03-26T21:55:23.292Z,51.67
2023-03-26T21:58:31.461Z,46.67
2023-03-26T22:01:18.892Z,56.30
2023-03-26T22:04:03.536Z,47.40
2023-03-26T22:06:38.575Z,59.50
2023-03-26T22:09:07.369Z,49.00
2023-03-26T22:11:35.317Z,45.83
2023-03-26T22:14:04.929Z,43.37
2023-03-26T22:16:33.519Z,43.30
2023-03-26T22:19:01.839Z,47.10
2023-03-26T22:21:30.565Z,40.70
2023-03-26T22:23:58.712Z,46.13
2023-03-26T22:26:26.947Z,46.73
2023-03-26T22:28:54.991Z,41.60
2023-03-26T22:31:26.158Z,42.00
2023-03-26T22:33:55.079Z,38.10
2023-03-26T22:36:25.192Z,45.37
2023-03-26T22:38:54.608Z,47.33
2023-03-26T22:41:23.297Z,45.07
2023-03-26T22:43:52.658Z,42.83
2023-03-26T22:46:21.027Z,41.07
2023-03-26T22:48:51.241Z,57.63
2023-03-26T22:51:19.620Z,39.27
2023-03-26T22:53:47.833Z,37.23
2023-03-26T22:56:17.121Z,35.30
2023-03-26T22:58:45.444Z,40.47
2023-03-26T23:01:18.315Z,37.80
2023-03-26T23:03:46.571Z,41.10
2023-03-26T23:06:17.068Z,36.43
2023-03-26T23:08:45.300Z,48.53
2023-03-26T23:11:15.332Z,43.63
2023-03-26T23:13:44.786Z,43.33
2023-03-26T23:16:14.203Z,39.10
2023-03-26T23:18:42.924Z,39.37
2023-03-26T23:21:18.139Z,41.77
2023-03-26T23:23:47.030Z,40.30
2023-03-26T23:26:16.255Z,40.40
2023-03-26T23:28:44.226Z,34.87
2023-03-26T23:31:13.934Z,45.77
2023-03-26T23:33:45.730Z,35.93
2023-03-26T23:36:18.863Z,35.13
2023-03-26T23:38:48.796Z,36.67
2023-03-26T23:41:21.270Z,38.03
2023-03-26T23:43:55.546Z,37.63
2023-03-26T23:46:25.569Z,33.30
2023-03-26T23:48:54.886Z,38.70
2023-03-26T23:51:24.327Z,34.53
2023-03-26T23:53:53.434Z,36.07
2023-03-26T23:56:21.524Z,36.10
2023-03-26T23:58:49.665Z,44.57
